Time;durP1;ratioP1;P1;durP2;ratioP2;P2;SDS_P1;SDS_P2;PMS_P1;PMS_P2;Temp;Humidity;BMP_temperature;BMP_pressure;BME280_temperature;BME280_humidity;BME280_pressure;Samples;Min_cycle;Max_cycle;Signal;HPM_P1;HPM_P2
2021/07/04 00:01:21;;;;;;;9.83;5.05;;;;;;;18.61;68.53;100457.05;4965466;57;1138625;-79
2021/07/04 00:06:27;;;;;;;16.42;10.28;;;;;;;18.62;68.40;100457.89;4890909;58;1138874;-82
2021/07/04 00:11:33;;;;;;;7.37;6.17;;;;;;;18.55;68.29;100463.06;4976458;57;1142917;-80
2021/07/04 00:16:39;;;;;;;8.85;4.92;;;;;;;18.49;68.43;100458.88;4976787;57;1138679;-80
2021/07/04 00:21:45;;;;;;;7.25;5.08;;;;;;;18.39;68.60;100453.73;4886356;58;1139068;-81
2021/07/04 00:26:50;;;;;;;8.42;4.26;;;;;;;18.21;68.99;100453.92;4886353;58;1138596;-82
2021/07/04 00:31:56;;;;;;;5.70;5.10;;;;;;;18.04;69.63;100456.78;4977011;57;1138704;-85
2021/07/04 00:37:01;;;;;;;5.63;4.70;;;;;;;17.91;69.94;100450.11;4977458;58;1139054;-81
2021/07/04 00:42:08;;;;;;;6.33;5.13;;;;;;;17.93;70.49;100447.27;5015880;57;1138619;-82
2021/07/04 00:47:14;;;;;;;9.20;6.77;;;;;;;17.89;70.83;100449.44;4989521;57;1138738;-81
2021/07/04 00:52:21;;;;;;;8.30;5.83;;;;;;;17.98;71.32;100438.24;4996732;57;1138808;-80
2021/07/04 00:57:28;;;;;;;6.37;5.27;;;;;;;18.15;71.61;100433.70;4996876;57;1139096;-77
2021/07/04 01:02:35;;;;;;;7.25;5.20;;;;;;;18.07;71.04;100410.95;5033217;57;1138682;-80
2021/07/04 01:07:43;;;;;;;9.27;5.70;;;;;;;18.07;71.04;100410.95;4994713;57;1138773;-86
2021/07/04 01:12:51;;;;;;;8.08;5.35;;;;;;;18.03;71.29;100411.78;4994229;57;1138799;-82
2021/07/04 01:18:01;;;;;;;5.73;5.13;;;;;;;18.04;71.46;100404.59;4994325;57;1138601;-81
2021/07/04 01:23:17;;;;;;;6.92;6.12;;;;;;;17.97;71.15;100400.44;4994468;57;1139004;-84
2021/07/04 01:28:24;;;;;;;7.42;5.90;;;;;;;17.89;71.17;100409.30;4994305;57;1138795;-79
2021/07/04 01:33:31;;;;;;;8.32;6.32;;;;;;;17.93;71.70;100414.66;4980688;57;1138690;-81
2021/07/04 01:38:38;;;;;;;7.67;5.97;;;;;;;17.96;71.84;100412.65;4971879;58;1138627;-82
2021/07/04 01:43:45;;;;;;;9.18;6.35;;;;;;;18.03;72.02;100422.49;4972058;58;1138606;-86
2021/07/04 01:48:52;;;;;;;8.00;6.62;;;;;;;18.04;71.76;100420.16;4972015;58;1138836;-82
2021/07/04 01:53:58;;;;;;;12.13;7.03;;;;;;;18.06;71.73;100421.33;4971940;58;1138692;-82
2021/07/04 01:59:06;;;;;;;11.10;7.73;;;;;;;18.12;71.69;100419.31;4971449;58;1141008;-83
2021/07/04 02:04:25;;;;;;;8.20;6.63;;;;;;;18.17;71.80;100422.33;4951426;58;1140978;-83
2021/07/04 02:09:35;;;;;;;18.60;11.60;;;;;;;18.17;71.43;100416.98;4969536;58;1138841;-81
2021/07/04 02:14:41;;;;;;;16.45;8.93;;;;;;;17.95;71.07;100413.16;4971321;58;1143026;-79
2021/07/04 02:19:50;;;;;;;12.13;7.60;;;;;;;17.74;71.42;100416.33;4879206;59;1140732;-80
2021/07/04 02:25:04;;;;;;;11.47;8.13;;;;;;;17.67;71.83;100422.53;4970439;58;1140711;-79
2021/07/04 02:30:13;;;;;;;9.03;7.47;;;;;;;17.63;72.13;100420.66;4969557;58;1140699;-81
2021/07/04 02:35:21;;;;;;;11.43;7.47;;;;;;;17.69;72.72;100426.72;4880894;59;1138702;-86
2021/07/04 02:40:29;;;;;;;13.60;9.60;;;;;;;17.63;72.54;100421.99;4893112;59;1140875;-81
2021/07/04 02:45:38;;;;;;;20.35;10.08;;;;;;;17.51;72.63;100442.05;4866475;58;1140734;-83
2021/07/04 02:50:46;;;;;;;20.23;12.82;;;;;;;17.55;73.19;100436.71;4879659;58;1143040;-84
2021/07/04 02:55:53;;;;;;;15.47;8.37;;;;;;;17.50;73.12;100438.53;4880620;58;1143082;-85
2021/07/04 03:01:01;;;;;;;12.77;9.63;;;;;;;17.49;73.26;100441.38;4880546;58;1140744;-85
2021/07/04 03:06:07;;;;;;;11.07;7.80;;;;;;;17.40;73.56;100439.20;4953164;58;1140692;-81
2021/07/04 03:11:14;;;;;;;6.73;6.07;;;;;;;17.32;73.93;100435.66;4963373;58;1140700;-82
2021/07/04 03:16:20;;;;;;;11.57;6.37;;;;;;;17.22;74.32;100438.50;4963645;58;1138943;-83
2021/07/04 03:21:28;;;;;;;9.60;6.07;;;;;;;17.17;74.50;100438.97;4956109;58;1140697;-83
2021/07/04 03:26:36;;;;;;;12.33;6.73;;;;;;;17.03;74.72;100438.77;4801843;59;1138656;-84
2021/07/04 03:31:43;;;;;;;9.65;7.85;;;;;;;16.91;75.47;100428.05;5002285;57;1141177;-83
2021/07/04 03:36:50;;;;;;;12.37;8.57;;;;;;;16.91;75.47;100428.05;4977126;57;1138815;-80
2021/07/04 03:41:56;;;;;;;15.60;7.90;;;;;;;17.02;75.52;100441.10;4973044;58;1140916;-81
2021/07/04 03:47:02;;;;;;;11.87;7.57;;;;;;;17.04;75.53;100445.29;4998692;57;1140715;-82
2021/07/04 03:52:08;;;;;;;10.00;8.70;;;;;;;17.01;75.67;100453.63;5055125;57;1140741;-81
2021/07/04 03:57:24;;;;;;;20.90;9.67;;;;;;;16.99;76.01;100453.44;5054820;57;1140716;-81
2021/07/04 04:02:34;;;;;;;13.08;8.44;;;;;;;17.03;76.29;100458.31;5025453;57;1140699;-80
2021/07/04 04:07:41;;;;;;;11.73;10.48;;;;;;;17.07;76.39;100458.33;4894559;57;1140749;-81
2021/07/04 04:12:48;;;;;;;13.20;9.45;;;;;;;17.08;76.65;100457.83;4881688;58;1143098;-87
2021/07/04 04:17:57;;;;;;;15.24;10.42;;;;;;;17.26;77.42;100461.73;4894414;58;1140900;-84
2021/07/04 04:23:03;;;;;;;16.93;9.90;;;;;;;17.44;77.47;100460.58;4894190;58;1143078;-80
2021/07/04 04:28:09;;;;;;;15.87;9.73;;;;;;;17.65;77.42;100467.33;4894626;58;1140903;-80
2021/07/04 04:33:16;;;;;;;11.93;9.40;;;;;;;17.76;77.47;100465.16;4894236;58;1140694;-82
2021/07/04 04:38:23;;;;;;;12.03;9.53;;;;;;;17.91;77.53;100466.66;4939782;58;1140880;-83
2021/07/04 04:43:28;;;;;;;11.93;9.33;;;;;;;17.97;76.97;100469.18;4976533;58;1140644;-83
2021/07/04 04:48:34;;;;;;;13.23;8.30;;;;;;;18.05;77.26;100470.00;4976521;58;1140733;-83
2021/07/04 04:53:39;;;;;;;12.67;9.20;;;;;;;18.17;77.38;100470.52;4976253;58;1140708;-81
2021/07/04 04:58:46;;;;;;;15.75;8.30;;;;;;;18.15;77.03;100465.33;4976413;58;1140770;-82
2021/07/04 05:03:52;;;;;;;11.37;8.30;;;;;;;18.10;76.99;100468.16;5015486;57;1140789;-81
2021/07/04 05:08:58;;;;;;;9.73;7.47;;;;;;;18.02;77.08;100471.70;5066826;57;1140707;-84
2021/07/04 05:14:04;;;;;;;13.40;9.00;;;;;;;18.01;77.53;100477.22;5067015;57;1138943;-81
2021/07/04 05:19:10;;;;;;;12.70;8.77;;;;;;;18.01;78.05;100472.70;5066771;57;1140873;-81
2021/07/04 05:24:16;;;;;;;12.17;9.07;;;;;;;18.14;78.59;100478.38;5063463;57;1140815;-83
2021/07/04 05:29:22;;;;;;;13.02;10.50;;;;;;;18.29;78.68;100481.20;5066744;57;1140754;-81
2021/07/04 05:34:28;;;;;;;15.20;10.80;;;;;;;18.39;78.70;100482.34;5066721;57;1142800;-84
2021/07/04 05:39:34;;;;;;;15.18;10.45;;;;;;;18.45;78.90;100479.83;5066747;57;1143013;-85
2021/07/04 05:44:39;;;;;;;11.75;9.60;;;;;;;18.48;78.90;100471.97;5066810;57;1142767;-83
2021/07/04 05:49:45;;;;;;;14.83;10.95;;;;;;;18.53;79.07;100465.57;5067056;57;1140816;-82
2021/07/04 05:54:51;;;;;;;14.37;11.97;;;;;;;18.54;79.03;100466.74;5067091;57;1142822;-79
2021/07/04 05:59:57;;;;;;;15.03;10.00;;;;;;;18.58;79.06;100469.45;5066963;57;1142807;-82
2021/07/04 06:05:04;;;;;;;9.87;8.97;;;;;;;18.68;79.29;100471.92;4968993;57;1142831;-81
2021/07/04 06:10:11;;;;;;;11.33;9.25;;;;;;;18.81;79.49;100466.01;4953569;57;1138832;-82
2021/07/04 06:15:17;;;;;;;11.00;8.63;;;;;;;19.05;79.98;100469.11;5012131;57;1140769;-84
2021/07/04 06:20:23;;;;;;;7.90;7.10;;;;;;;19.31;79.88;100459.73;5018375;56;1140762;-84
2021/07/04 06:25:29;;;;;;;7.35;6.30;;;;;;;19.56;79.32;100459.09;4891106;58;1138601;-81
2021/07/04 06:30:34;;;;;;;4.40;3.75;;;;;;;19.75;78.86;100459.62;4951311;57;1138639;-85
2021/07/04 06:35:40;;;;;;;5.92;5.33;;;;;;;19.89;77.78;100455.65;4976656;58;1138597;-82
2021/07/04 06:40:46;;;;;;;5.45;4.60;;;;;;;19.96;77.70;100455.27;4956058;58;1138858;-84
2021/07/04 06:45:53;;;;;;;6.15;4.50;;;;;;;20.12;77.05;100455.62;4915086;58;1138899;-83
2021/07/04 06:50:59;;;;;;;7.62;4.87;;;;;;;20.28;77.02;100447.92;4961137;58;1138883;-86
2021/07/04 06:56:05;;;;;;;4.60;4.10;;;;;;;20.51;76.94;100444.66;4952257;57;1138993;-81
2021/07/04 07:01:13;;;;;;;4.78;4.30;;;;;;;20.74;75.48;100445.92;4950508;57;1138677;-86
2021/07/04 07:06:20;;;;;;;6.08;4.10;;;;;;;20.89;75.52;100451.28;4967349;58;1138652;-83
2021/07/04 07:11:25;;;;;;;9.40;3.70;;;;;;;21.03;75.04;100442.36;4967152;58;1138597;-82
2021/07/04 07:16:31;;;;;;;4.83;4.20;;;;;;;21.12;72.81;100445.76;4967705;58;1138712;-84
2021/07/04 07:21:37;;;;;;;3.60;3.30;;;;;;;21.08;71.88;100438.60;4967982;58;1138629;-82
2021/07/04 07:26:43;;;;;;;4.80;3.60;;;;;;;21.13;70.77;100427.25;4968066;58;1138668;-84
2021/07/04 07:31:49;;;;;;;5.10;3.22;;;;;;;21.31;71.75;100427.70;4968108;58;1138646;-86
2021/07/04 07:36:55;;;;;;;4.03;3.67;;;;;;;21.49;70.97;100424.06;4967866;58;1138780;-84
2021/07/04 07:42:01;;;;;;;5.03;4.10;;;;;;;21.61;71.12;100420.34;4996357;58;1138855;-82
2021/07/04 07:47:08;;;;;;;5.45;3.25;;;;;;;21.82;70.88;100431.11;4991086;58;1138803;-82
2021/07/04 07:52:13;;;;;;;5.47;3.15;;;;;;;22.00;69.31;100418.52;5035596;57;1138577;-87
2021/07/04 07:57:20;;;;;;;3.55;3.25;;;;;;;22.15;69.61;100415.75;4898848;59;1138635;-83
2021/07/04 08:02:26;;;;;;;3.42;3.12;;;;;;;22.30;68.50;100410.58;5063782;57;1138602;-83
2021/07/04 08:07:32;;;;;;;3.45;3.22;;;;;;;22.39;67.85;100400.45;5012037;57;1138628;-79
2021/07/04 08:12:39;;;;;;;3.72;2.78;;;;;;;22.48;67.22;100395.72;5044741;57;1138842;-85
2021/07/04 08:17:45;;;;;;;3.85;3.10;;;;;;;22.68;67.61;100382.66;4998663;58;1138770;-87
2021/07/04 08:22:51;;;;;;;6.65;3.15;;;;;;;22.97;66.55;100388.30;4916696;59;1138848;-85
2021/07/04 08:27:56;;;;;;;3.85;2.87;;;;;;;23.07;64.22;100380.64;4916470;59;1138707;-83
2021/07/04 08:33:02;;;;;;;5.35;4.22;;;;;;;23.05;64.65;100381.39;4976354;57;1138843;-79
2021/07/04 08:38:08;;;;;;;8.83;5.25;;;;;;;23.22;63.62;100376.42;5040002;57;1138759;-85
2021/07/04 08:43:21;;;;;;;5.20;4.12;;;;;;;23.12;64.36;100382.22;5044305;57;1138603;-86
2021/07/04 08:48:28;;;;;;;4.72;4.33;;;;;;;23.14;64.80;100392.81;4929161;58;1138658;-83
2021/07/04 08:53:34;;;;;;;6.58;3.22;;;;;;;23.10;64.82;100386.98;4991083;57;1138604;-82
2021/07/04 08:58:39;;;;;;;9.05;3.60;;;;;;;23.09;63.73;100385.32;5015241;57;1138843;-83
2021/07/04 09:03:50;;;;;;;3.70;3.20;;;;;;;23.02;63.81;100389.88;5010841;57;1138820;-83
2021/07/04 09:09:09;;;;;;;7.25;3.17;;;;;;;22.89;62.98;100385.80;4969106;58;1138674;-82
2021/07/04 09:14:14;;;;;;;3.77;3.47;;;;;;;22.90;62.83;100384.77;4807071;59;1138643;-82
2021/07/04 09:19:20;;;;;;;4.17;3.27;;;;;;;23.11;63.40;100382.42;4807305;59;1138743;-81
2021/07/04 09:24:38;;;;;;;3.42;3.22;;;;;;;23.36;63.10;100379.48;4803722;59;1139062;-82
2021/07/04 09:29:52;;;;;;;7.07;3.00;;;;;;;23.61;62.61;100380.25;4807342;58;1138760;-81
2021/07/04 09:35:12;;;;;;;10.88;4.20;;;;;;;23.92;63.17;100379.63;4812450;59;1138782;-81
2021/07/04 09:40:25;;;;;;;3.15;2.85;;;;;;;24.14;62.59;100387.78;4847614;59;1140780;-88
2021/07/04 09:45:51;;;;;;;4.45;3.15;;;;;;;24.39;61.16;100377.18;4802142;59;1139116;-83
2021/07/04 09:51:03;;;;;;;4.35;3.20;;;;;;;24.44;60.07;100373.33;4942880;58;1138737;-83
2021/07/04 09:56:23;;;;;;;4.10;2.87;;;;;;;24.27;59.00;100370.25;4999404;58;1138672;-84
2021/07/04 10:01:46;;;;;;;6.87;4.12;;;;;;;24.08;59.00;100362.98;4999124;58;1138814;-83
2021/07/04 10:06:53;;;;;;;3.55;2.70;;;;;;;23.93;58.99;100359.16;5042914;57;1139099;-84
2021/07/04 10:12:00;;;;;;;3.67;2.83;;;;;;;23.85;59.36;100354.78;4996226;58;1138915;-81
2021/07/04 10:17:06;;;;;;;4.20;2.65;;;;;;;23.79;59.02;100349.41;5021301;57;1138720;-79
2021/07/04 10:22:12;;;;;;;4.45;3.15;;;;;;;23.90;58.85;100339.83;5078015;57;1138683;-79
2021/07/04 10:27:18;;;;;;;2.95;2.62;;;;;;;24.03;58.49;100336.58;5077809;57;1139017;-85
2021/07/04 10:32:24;;;;;;;2.83;2.67;;;;;;;24.18;58.32;100332.28;5077647;57;1138644;-81
2021/07/04 10:37:41;;;;;;;4.20;2.40;;;;;;;24.30;56.79;100318.45;5077830;57;1138809;-83
2021/07/04 10:42:47;;;;;;;8.03;3.22;;;;;;;24.34;55.63;100322.91;5077782;57;1138609;-80
2021/07/04 10:47:59;;;;;;;3.80;3.05;;;;;;;24.65;55.93;100302.70;5077712;57;1138691;-83
2021/07/04 10:53:05;;;;;;;4.35;2.58;;;;;;;24.65;55.93;100302.70;5039610;57;1138637;-84
2021/07/04 10:58:13;;;;;;;2.65;2.10;;;;;;;24.77;54.99;100302.84;5077389;57;1138688;-81
2021/07/04 11:03:30;;;;;;;2.58;2.40;;;;;;;24.79;54.23;100302.94;5044051;57;1138951;-79
2021/07/04 11:08:40;;;;;;;3.27;2.60;;;;;;;24.91;55.44;100292.25;5034887;57;1138863;-83
2021/07/04 11:13:50;;;;;;;4.67;2.83;;;;;;;25.16;56.39;100290.46;5046108;57;1138823;-83
2021/07/04 11:19:01;;;;;;;3.70;2.27;;;;;;;25.55;55.26;100280.33;5023029;57;1138614;-79
2021/07/04 11:24:18;;;;;;;4.22;2.33;;;;;;;25.83;55.39;100275.29;5037387;57;1138676;-80
2021/07/04 11:29:24;;;;;;;6.05;2.90;;;;;;;25.94;54.13;100275.09;4995495;57;1138923;-82
2021/07/04 11:34:30;;;;;;;3.55;3.20;;;;;;;26.09;54.25;100272.01;4995360;57;1138632;-83
2021/07/04 11:39:35;;;;;;;4.78;2.47;;;;;;;26.09;52.52;100268.77;4995700;57;1138617;-85
2021/07/04 11:44:41;;;;;;;2.00;1.90;;;;;;;25.99;51.92;100262.20;4995662;57;1139033;-78
2021/07/04 11:49:47;;;;;;;3.00;2.47;;;;;;;26.18;51.32;100261.15;4995519;57;1138931;-82
2021/07/04 11:54:57;;;;;;;5.90;2.37;;;;;;;26.45;51.94;100258.95;4995468;57;1138639;-84
2021/07/04 12:00:11;;;;;;;2.27;2.08;;;;;;;26.70;52.06;100252.88;4994864;57;1138699;-83
2021/07/04 12:05:19;;;;;;;5.22;2.47;;;;;;;27.02;52.51;100257.55;4995828;57;1138686;-83
2021/07/04 12:10:25;;;;;;;2.27;2.12;;;;;;;27.33;51.94;100248.27;4995653;58;1138662;-81
2021/07/04 12:15:31;;;;;;;2.60;2.40;;;;;;;27.29;48.53;100241.11;4995701;58;1138871;-79
2021/07/04 12:20:37;;;;;;;3.00;1.90;;;;;;;27.24;48.80;100235.55;4995871;58;1138631;-86
2021/07/04 12:25:43;;;;;;;2.44;2.34;;;;;;;27.17;47.22;100235.38;4996063;58;1138649;-82
2021/07/04 12:30:51;;;;;;;10.38;2.67;;;;;;;27.09;47.26;100232.99;4995887;58;1138876;-87
2021/07/04 12:36:08;;;;;;;2.67;2.47;;;;;;;27.26;47.96;100219.85;4995764;58;1140999;-81
2021/07/04 12:41:15;;;;;;;5.10;2.17;;;;;;;27.50;49.05;100216.59;4913615;58;1138868;-82
2021/07/04 12:46:36;;;;;;;3.37;2.08;;;;;;;27.76;48.05;100207.16;4995739;58;1138851;-83
2021/07/04 12:51:39;;;;;;;2.05;1.95;;;;;;;27.95;47.97;100203.77;4996170;58;1138666;-83
2021/07/04 12:56:50;;;;;;;3.03;2.70;;;;;;;28.17;48.37;100197.12;4975436;58;1138752;-87
2021/07/04 13:01:59;;;;;;;4.33;2.15;;;;;;;28.36;47.42;100186.37;4966905;58;1138806;-85
2021/07/04 13:07:09;;;;;;;3.58;2.50;;;;;;;28.43;47.72;100186.21;4960975;58;1138754;-81
2021/07/04 13:12:18;;;;;;;8.78;2.90;;;;;;;28.46;45.72;100187.09;4944608;58;1138722;-88
2021/07/04 13:17:33;;;;;;;2.67;2.45;;;;;;;28.41;46.37;100179.69;4983098;58;1138856;-81
2021/07/04 13:22:44;;;;;;;2.52;2.33;;;;;;;28.49;46.71;100182.53;4957674;58;1138790;-80
2021/07/04 13:28:08;;;;;;;4.17;1.98;;;;;;;28.59;46.39;100171.28;4923710;58;1138816;-83
2021/07/04 13:33:15;;;;;;;2.92;2.33;;;;;;;28.87;46.37;100172.34;4914199;58;1138869;-78
2021/07/04 13:38:21;;;;;;;2.58;2.20;;;;;;;29.00;45.74;100164.67;4962282;58;1138869;-89
2021/07/04 13:43:29;;;;;;;3.15;2.92;;;;;;;29.13;44.71;100164.03;4967040;58;1138854;-83
2021/07/04 13:48:34;;;;;;;4.22;1.92;;;;;;;28.99;44.50;100164.38;4958551;58;1138827;-84
2021/07/04 13:53:40;;;;;;;2.05;1.95;;;;;;;29.02;44.61;100153.53;5051324;57;1138822;-82
2021/07/04 13:58:46;;;;;;;2.85;2.35;;;;;;;29.02;45.05;100150.27;5033521;57;1138674;-80
2021/07/04 14:03:51;;;;;;;2.10;2.00;;;;;;;28.98;44.79;100149.64;5047133;57;1138958;-86
2021/07/04 14:08:57;;;;;;;3.72;2.40;;;;;;;28.84;44.38;100143.72;5000110;58;1138672;-82
2021/07/04 14:14:03;;;;;;;3.02;2.50;;;;;;;28.60;44.17;100143.00;5000160;58;1138752;-78
2021/07/04 14:19:09;;;;;;;2.90;2.20;;;;;;;28.51;44.83;100147.74;5000194;58;1138562;-81
2021/07/04 14:24:15;;;;;;;9.03;2.20;;;;;;;28.50;44.33;100143.37;5000147;58;1138662;-84
2021/07/04 14:29:22;;;;;;;6.78;2.33;;;;;;;28.37;43.48;100137.70;4999955;58;1138673;-84
2021/07/04 14:34:28;;;;;;;7.45;1.95;;;;;;;28.21;43.94;100131.16;5005818;57;1138621;-82
2021/07/04 14:39:33;;;;;;;2.02;1.87;;;;;;;28.15;43.96;100132.63;5012802;57;1138667;-83
2021/07/04 14:44:40;;;;;;;3.83;2.27;;;;;;;28.09;43.76;100132.26;4986743;58;1138854;-85
2021/07/04 14:49:46;;;;;;;4.96;2.76;;;;;;;27.99;43.52;100124.18;4987140;58;1138754;-79
2021/07/04 14:54:58;;;;;;;3.00;2.55;;;;;;;27.88;44.07;100128.31;5038333;57;1138872;-82
2021/07/04 14:59:59;;;;;;;10.98;2.55;;;;;;;27.87;44.15;100125.30;5081989;57;1138586;-85
2021/07/04 15:05:05;;;;;;;2.47;2.15;;;;;;;27.89;44.13;100117.73;5017872;57;1140886;-83
2021/07/04 15:10:11;;;;;;;2.47;2.10;;;;;;;27.95;44.20;100117.60;4986977;58;1139054;-85
2021/07/04 15:15:17;;;;;;;2.05;1.85;;;;;;;27.98;43.88;100117.63;4993585;57;1138810;-86
2021/07/04 15:20:23;;;;;;;2.20;2.00;;;;;;;27.97;43.86;100113.25;5040406;57;1138723;-82
2021/07/04 15:25:29;;;;;;;2.37;1.92;;;;;;;27.94;43.83;100120.56;5056194;57;1138993;-85
2021/07/04 15:31:04;;;;;;;;;;;;;;;;;;;;;
2021/07/04 15:36:05;;;;;;;2.05;1.92;;;;;;;27.90;43.71;100112.05;4943409;57;1138823;-86
2021/07/04 15:41:11;;;;;;;1.85;1.75;;;;;;;27.87;43.50;100109.81;5002216;57;1138524;-83
2021/07/04 15:46:16;;;;;;;3.77;2.17;;;;;;;27.83;43.52;100109.17;5000740;57;1138956;-87
2021/07/04 15:51:22;;;;;;;5.55;2.22;;;;;;;27.79;43.92;100108.03;5018895;57;1138647;-84
2021/07/04 15:56:28;;;;;;;2.15;2.05;;;;;;;27.76;43.81;100109.33;5026357;57;1138684;-86
2021/07/04 16:01:34;;;;;;;2.40;2.20;;;;;;;27.74;44.21;100106.02;5014436;57;1138783;-85
2021/07/04 16:06:39;;;;;;;2.05;1.95;;;;;;;27.71;44.28;100092.91;5020051;57;1138566;-85
2021/07/04 16:11:45;;;;;;;2.30;2.20;;;;;;;27.68;44.34;100093.92;4966352;58;1138724;-85
2021/07/04 16:16:51;;;;;;;4.40;2.15;;;;;;;27.65;44.58;100100.69;4965980;58;1138745;-83
2021/07/04 16:21:57;;;;;;;5.40;1.75;;;;;;;27.52;44.93;100101.73;4965397;57;1138820;-88
2021/07/04 16:27:03;;;;;;;4.65;2.00;;;;;;;27.45;45.16;100099.70;4964938;58;1138660;-83
2021/07/04 16:32:11;;;;;;;2.33;2.22;;;;;;;27.43;44.74;100088.77;4965432;58;1138668;-78
2021/07/04 16:37:17;;;;;;;2.77;2.30;;;;;;;27.39;45.35;100091.66;4976661;57;1138850;-78
2021/07/04 16:42:23;;;;;;;7.85;2.50;;;;;;;27.33;45.03;100097.54;5046541;57;1138543;-75
2021/07/04 16:47:29;;;;;;;4.20;2.70;;;;;;;27.32;45.13;100098.60;5044921;57;1138756;-76
2021/07/04 16:52:35;;;;;;;5.58;2.30;;;;;;;27.30;45.30;100092.58;4997634;57;1138763;-80
2021/07/04 16:58:00;;;;;;;2.37;2.00;;;;;;;27.31;45.38;100099.13;5032850;57;1138678;-82
2021/07/04 17:03:23;;;;;;;2.87;2.57;;;;;;;27.32;45.56;100094.53;5045787;57;1138718;-81
2021/07/04 17:08:30;;;;;;;4.33;3.92;;;;;;;27.20;45.67;100089.09;5038976;57;1138905;-75
2021/07/04 17:13:40;;;;;;;5.20;4.78;;;;;;;27.20;45.67;100089.09;5060312;57;1138581;-79
2021/07/04 17:18:45;;;;;;;4.53;3.22;;;;;;;27.23;45.24;100089.98;5012318;57;1139120;-79
2021/07/04 17:23:51;;;;;;;10.78;7.10;;;;;;;27.18;45.26;100094.49;5042554;57;1138776;-80
2021/07/04 17:28:57;;;;;;;6.78;5.15;;;;;;;27.16;45.54;100093.90;5039519;57;1140851;-83
2021/07/04 17:34:03;;;;;;;7.10;5.40;;;;;;;27.13;45.51;100095.20;5032466;57;1138584;-74
2021/07/04 17:39:14;;;;;;;4.28;2.90;;;;;;;27.08;45.53;100098.31;5051233;57;1138833;-80
2021/07/04 17:44:24;;;;;;;4.92;2.87;;;;;;;27.02;45.69;100106.06;5034003;57;1138623;-80
2021/07/04 17:49:30;;;;;;;14.60;3.40;;;;;;;26.86;47.26;100109.75;4999523;58;1138960;-78
2021/07/04 17:54:36;;;;;;;5.20;3.02;;;;;;;26.55;48.60;100105.47;4999560;58;1140771;-75
2021/07/04 17:59:45;;;;;;;8.13;3.12;;;;;;;26.25;49.19;100112.80;4981815;58;1138627;-80
2021/07/04 18:04:51;;;;;;;9.38;2.95;;;;;;;26.10;49.89;100112.39;4964856;58;1138804;-77
2021/07/04 18:09:57;;;;;;;5.20;3.12;;;;;;;26.01;50.60;100115.10;4965278;58;1138844;-78
2021/07/04 18:15:04;;;;;;;3.25;2.22;;;;;;;25.92;51.00;100114.61;4965460;58;1138907;-80
2021/07/04 18:20:14;;;;;;;11.33;3.33;;;;;;;25.82;51.20;100109.72;4964910;58;1138993;-83
2021/07/04 18:25:20;;;;;;;4.55;3.33;;;;;;;25.81;51.74;100112.16;4964921;57;1140838;-78
2021/07/04 18:30:26;;;;;;;3.45;3.15;;;;;;;25.76;51.83;100114.70;4991409;57;1138583;-80
2021/07/04 18:35:33;;;;;;;6.37;2.50;;;;;;;25.76;52.03;100111.17;5039875;57;1138573;-79
2021/07/04 18:40:39;;;;;;;10.78;3.12;;;;;;;25.70;52.23;100110.19;5028105;57;1138865;-77
2021/07/04 18:45:45;;;;;;;6.28;2.75;;;;;;;25.58;52.58;100115.52;5045703;57;1140742;-81
2021/07/04 18:50:50;;;;;;;3.15;2.85;;;;;;;25.42;52.97;100120.18;5045600;57;1159405;-81
2021/07/04 18:55:56;;;;;;;9.24;3.42;;;;;;;25.23;53.56;100119.86;5041178;57;1138632;-79
2021/07/04 19:01:03;;;;;;;2.85;2.65;;;;;;;25.17;53.92;100124.31;5015038;57;1138684;-81
2021/07/04 19:06:11;;;;;;;4.05;2.60;;;;;;;25.17;54.10;100122.95;5004636;57;1138893;-80
2021/07/04 19:11:19;;;;;;;8.88;2.80;;;;;;;25.16;54.21;100128.06;5005181;58;1138637;-74
2021/07/04 19:16:24;;;;;;;3.50;2.50;;;;;;;25.15;54.36;100125.05;4949781;58;1138656;-77
2021/07/04 19:21:30;;;;;;;5.25;2.50;;;;;;;25.13;54.51;100124.97;4995283;57;1138889;-79
2021/07/04 19:26:47;;;;;;;9.35;3.27;;;;;;;25.08;54.59;100124.28;5011967;57;1138861;-81
2021/07/04 19:31:53;;;;;;;3.17;2.90;;;;;;;25.01;54.69;100126.23;5008817;57;1138607;-78
2021/07/04 19:36:59;;;;;;;3.58;2.70;;;;;;;24.95;54.92;100128.98;4971354;58;1138782;-81
2021/07/04 19:42:07;;;;;;;4.70;3.20;;;;;;;25.01;55.15;100143.00;5017468;57;1138792;-79
2021/07/04 19:47:12;;;;;;;4.37;3.62;;;;;;;24.95;55.21;100131.70;5031617;57;1138640;-76
2021/07/04 19:52:18;;;;;;;2.98;2.70;;;;;;;24.93;55.40;100135.94;5052592;57;1138675;-75
2021/07/04 19:57:24;;;;;;;5.72;3.35;;;;;;;24.92;55.53;100130.75;5015842;57;1138838;-80
2021/07/04 20:02:31;;;;;;;6.35;3.22;;;;;;;24.90;55.55;100128.30;5061076;57;1138780;-80
2021/07/04 20:07:36;;;;;;;5.90;3.15;;;;;;;24.81;55.65;100127.73;4965056;57;1139010;-78
2021/07/04 20:12:43;;;;;;;5.20;3.05;;;;;;;24.54;55.98;100130.34;5026173;57;1138876;-79
2021/07/04 20:17:50;;;;;;;5.97;3.27;;;;;;;24.33;56.47;100125.28;5019653;57;1138597;-79
2021/07/04 20:22:56;;;;;;;6.33;2.80;;;;;;;24.22;57.20;100131.36;5044253;57;1138669;-80
2021/07/04 20:28:04;;;;;;;5.45;3.75;;;;;;;24.19;57.53;100134.80;5029080;57;1138974;-80
2021/07/04 20:33:10;;;;;;;8.68;3.20;;;;;;;24.09;57.76;100132.27;5063238;57;1138633;-77
2021/07/04 20:38:16;;;;;;;3.40;3.10;;;;;;;23.91;58.08;100137.03;4995467;56;1138707;-78
2021/07/04 20:43:21;;;;;;;6.95;3.37;;;;;;;23.89;58.88;100136.93;4995488;57;1138772;-78
2021/07/04 20:48:28;;;;;;;5.95;3.27;;;;;;;23.83;59.00;100135.39;5065963;57;1138837;-74
2021/07/04 20:53:34;;;;;;;5.28;3.47;;;;;;;23.77;59.17;100134.08;5096112;57;1138648;-75
2021/07/04 20:58:40;;;;;;;4.03;3.55;;;;;;;23.76;59.43;100128.37;5050786;57;1138881;-77
2021/07/04 21:03:46;;;;;;;4.30;3.65;;;;;;;23.78;59.40;100124.94;5044030;57;1139179;-77
2021/07/04 21:08:52;;;;;;;6.20;3.58;;;;;;;23.75;59.38;100132.94;4991848;58;1138688;-79
2021/07/04 21:13:57;;;;;;;6.97;4.12;;;;;;;23.66;59.55;100126.14;4995507;58;1139018;-80
2021/07/04 21:19:03;;;;;;;4.57;4.10;;;;;;;23.62;59.90;100124.06;4996500;57;1138800;-76
2021/07/04 21:24:08;;;;;;;5.08;4.45;;;;;;;23.61;60.07;100119.19;5046290;57;1138873;-76
2021/07/04 21:29:14;;;;;;;4.40;4.10;;;;;;;23.60;60.21;100121.58;5076863;57;1138646;-76
2021/07/04 21:34:20;;;;;;;8.38;4.40;;;;;;;23.58;60.38;100122.31;5052820;57;1138606;-76
2021/07/04 21:39:26;;;;;;;5.37;3.92;;;;;;;23.56;60.55;100122.20;5062499;56;1138661;-81
2021/07/04 21:44:32;;;;;;;5.30;4.58;;;;;;;23.54;60.72;100125.63;5060778;57;1138557;-76
2021/07/04 21:49:38;;;;;;;7.22;5.67;;;;;;;23.58;61.00;100129.06;5039755;57;1138853;-79
2021/07/04 21:54:44;;;;;;;10.08;5.60;;;;;;;23.58;61.13;100129.06;5006353;57;1139017;-79
2021/07/04 21:59:52;;;;;;;6.75;6.10;;;;;;;23.55;61.20;100125.42;4994733;57;1140689;-77
2021/07/04 22:04:58;;;;;;;4.85;4.45;;;;;;;23.55;61.38;100119.20;5027415;57;1138838;-78
2021/07/04 22:10:05;;;;;;;9.38;5.33;;;;;;;23.53;61.37;100122.66;4986944;57;1138759;-78
2021/07/04 22:15:13;;;;;;;7.37;4.65;;;;;;;23.45;61.57;100123.67;4964805;58;1138819;-76
2021/07/04 22:20:21;;;;;;;5.47;4.97;;;;;;;23.34;61.92;100122.98;4964346;58;1138657;-81
2021/07/04 22:25:28;;;;;;;6.80;5.10;;;;;;;23.23;62.06;100112.81;4964377;58;1138629;-78
2021/07/04 22:30:34;;;;;;;12.70;5.42;;;;;;;23.24;62.44;100119.88;4964519;58;1138579;-80
2021/07/04 22:35:40;;;;;;;10.45;5.40;;;;;;;23.21;62.58;100121.67;4964396;58;1140760;-79
2021/07/04 22:40:45;;;;;;;5.22;4.75;;;;;;;23.16;62.88;100129.03;4960448;58;1140686;-76
2021/07/04 22:45:51;;;;;;;7.08;5.00;;;;;;;23.14;63.22;100129.77;4964516;58;1138594;-79
2021/07/04 22:50:58;;;;;;;6.35;4.70;;;;;;;23.13;63.29;100132.98;4964753;58;1138555;-80
2021/07/04 22:56:04;;;;;;;4.90;4.58;;;;;;;23.20;63.49;100131.63;4964783;58;1138830;-78
2021/07/04 23:01:19;;;;;;;7.40;5.87;;;;;;;23.07;62.97;100128.93;4964425;58;1138650;-81
2021/07/04 23:06:26;;;;;;;6.77;5.10;;;;;;;22.93;63.75;100126.77;4965145;58;1138907;-80
2021/07/04 23:11:32;;;;;;;5.65;5.10;;;;;;;22.80;63.75;100135.70;4968595;58;1138589;-75
2021/07/04 23:16:37;;;;;;;6.33;4.80;;;;;;;22.59;64.05;100134.54;4987235;58;1138764;-82